sensor_id;sensor_type;location;lat;lon;timestamp;temperature;humidity
72905;DHT22;61048;52.162;4.516;2022-08-19T00:01:32;23.80;62.20
72905;DHT22;61048;52.162;4.516;2022-08-19T00:04:01;23.80;62.20
72905;DHT22;61048;52.162;4.516;2022-08-19T00:06:29;23.80;62.10
72905;DHT22;61048;52.162;4.516;2022-08-19T00:08:57;23.80;62.20
72905;DHT22;61048;52.162;4.516;2022-08-19T00:11:25;23.80;62.20
72905;DHT22;61048;52.162;4.516;2022-08-19T00:13:55;23.80;62.20
72905;DHT22;61048;52.162;4.516;2022-08-19T00:16:24;23.80;62.10
72905;DHT22;61048;52.162;4.516;2022-08-19T00:18:51;23.80;62.30
72905;DHT22;61048;52.162;4.516;2022-08-19T00:21:18;23.80;62.30
72905;DHT22;61048;52.162;4.516;2022-08-19T00:23:45;23.90;62.30
72905;DHT22;61048;52.162;4.516;2022-08-19T00:26:12;23.80;62.40
72905;DHT22;61048;52.162;4.516;2022-08-19T00:28:39;23.80;62.50
72905;DHT22;61048;52.162;4.516;2022-08-19T00:31:09;23.90;62.50
72905;DHT22;61048;52.162;4.516;2022-08-19T00:33:36;23.90;62.70
72905;DHT22;61048;52.162;4.516;2022-08-19T00:36:06;23.90;62.70
72905;DHT22;61048;52.162;4.516;2022-08-19T00:38:34;23.90;62.80
72905;DHT22;61048;52.162;4.516;2022-08-19T00:41:01;23.90;62.80
72905;DHT22;61048;52.162;4.516;2022-08-19T00:43:28;23.90;62.90
72905;DHT22;61048;52.162;4.516;2022-08-19T00:45:55;23.90;62.80
72905;DHT22;61048;52.162;4.516;2022-08-19T00:48:23;23.90;62.90
72905;DHT22;61048;52.162;4.516;2022-08-19T00:50:51;23.90;62.90
72905;DHT22;61048;52.162;4.516;2022-08-19T00:53:22;23.90;62.80
72905;DHT22;61048;52.162;4.516;2022-08-19T00:55:51;23.90;62.80
72905;DHT22;61048;52.162;4.516;2022-08-19T00:58:21;23.90;62.70
72905;DHT22;61048;52.162;4.516;2022-08-19T01:00:48;23.90;62.80
72905;DHT22;61048;52.162;4.516;2022-08-19T01:03:18;23.90;62.70
72905;DHT22;61048;52.162;4.516;2022-08-19T01:05:47;24.00;62.70
72905;DHT22;61048;52.162;4.516;2022-08-19T01:08:17;23.90;62.70
72905;DHT22;61048;52.162;4.516;2022-08-19T01:10:47;23.90;62.80
72905;DHT22;61048;52.162;4.516;2022-08-19T01:13:16;23.90;62.70
72905;DHT22;61048;52.162;4.516;2022-08-19T01:15:46;23.90;62.70
72905;DHT22;61048;52.162;4.516;2022-08-19T01:18:16;23.90;62.80
72905;DHT22;61048;52.162;4.516;2022-08-19T01:20:45;23.90;62.60
72905;DHT22;61048;52.162;4.516;2022-08-19T01:23:14;23.90;62.70
72905;DHT22;61048;52.162;4.516;2022-08-19T01:25:46;23.90;62.60
72905;DHT22;61048;52.162;4.516;2022-08-19T01:28:19;23.90;62.60
72905;DHT22;61048;52.162;4.516;2022-08-19T01:30:47;24.00;62.70
72905;DHT22;61048;52.162;4.516;2022-08-19T01:33:14;23.90;62.70
72905;DHT22;61048;52.162;4.516;2022-08-19T01:35:42;24.00;62.50
72905;DHT22;61048;52.162;4.516;2022-08-19T01:38:18;24.00;62.70
72905;DHT22;61048;52.162;4.516;2022-08-19T01:40:47;23.90;62.60
72905;DHT22;61048;52.162;4.516;2022-08-19T01:43:14;24.00;62.50
72905;DHT22;61048;52.162;4.516;2022-08-19T01:45:41;24.00;62.60
72905;DHT22;61048;52.162;4.516;2022-08-19T01:48:08;23.90;62.60
72905;DHT22;61048;52.162;4.516;2022-08-19T01:50:35;23.90;62.60
72905;DHT22;61048;52.162;4.516;2022-08-19T01:53:04;23.90;62.70
72905;DHT22;61048;52.162;4.516;2022-08-19T01:55:32;23.90;62.50
72905;DHT22;61048;52.162;4.516;2022-08-19T01:58:02;23.90;62.60
72905;DHT22;61048;52.162;4.516;2022-08-19T02:00:32;23.90;62.60
72905;DHT22;61048;52.162;4.516;2022-08-19T02:02:59;23.90;62.70
72905;DHT22;61048;52.162;4.516;2022-08-19T02:05:26;23.90;62.50
72905;DHT22;61048;52.162;4.516;2022-08-19T02:07:54;23.90;62.60
72905;DHT22;61048;52.162;4.516;2022-08-19T02:10:22;23.90;62.60
72905;DHT22;61048;52.162;4.516;2022-08-19T02:12:49;24.00;62.60
72905;DHT22;61048;52.162;4.516;2022-08-19T02:15:19;23.90;62.60
72905;DHT22;61048;52.162;4.516;2022-08-19T02:17:46;23.90;62.60
72905;DHT22;61048;52.162;4.516;2022-08-19T02:20:13;23.90;62.70
72905;DHT22;61048;52.162;4.516;2022-08-19T02:22:40;24.00;62.60
72905;DHT22;61048;52.162;4.516;2022-08-19T02:25:08;24.00;62.70
72905;DHT22;61048;52.162;4.516;2022-08-19T02:27:35;23.90;62.60
72905;DHT22;61048;52.162;4.516;2022-08-19T02:30:05;23.90;62.60
72905;DHT22;61048;52.162;4.516;2022-08-19T02:32:34;24.00;62.70
72905;DHT22;61048;52.162;4.516;2022-08-19T02:35:01;24.00;62.60
72905;DHT22;61048;52.162;4.516;2022-08-19T02:37:28;23.90;62.60
72905;DHT22;61048;52.162;4.516;2022-08-19T02:40:12;23.90;62.70
72905;DHT22;61048;52.162;4.516;2022-08-19T02:42:39;23.90;62.60
72905;DHT22;61048;52.162;4.516;2022-08-19T02:45:08;23.90;62.70
72905;DHT22;61048;52.162;4.516;2022-08-19T02:47:37;23.90;62.70
72905;DHT22;61048;52.162;4.516;2022-08-19T02:50:05;23.90;62.70
72905;DHT22;61048;52.162;4.516;2022-08-19T02:52:33;24.00;62.60
72905;DHT22;61048;52.162;4.516;2022-08-19T02:55:00;24.00;62.60
72905;DHT22;61048;52.162;4.516;2022-08-19T02:57:27;24.00;62.60
72905;DHT22;61048;52.162;4.516;2022-08-19T02:59:54;24.00;62.50
72905;DHT22;61048;52.162;4.516;2022-08-19T03:02:21;24.00;62.60
72905;DHT22;61048;52.162;4.516;2022-08-19T03:04:49;24.00;62.60
72905;DHT22;61048;52.162;4.516;2022-08-19T03:07:18;24.00;62.60
72905;DHT22;61048;52.162;4.516;2022-08-19T03:09:45;24.00;62.70
72905;DHT22;61048;52.162;4.516;2022-08-19T03:12:12;24.00;62.60
72905;DHT22;61048;52.162;4.516;2022-08-19T03:14:39;24.00;62.60
72905;DHT22;61048;52.162;4.516;2022-08-19T03:17:06;24.00;62.40
72905;DHT22;61048;52.162;4.516;2022-08-19T03:19:33;24.00;62.60
72905;DHT22;61048;52.162;4.516;2022-08-19T03:22:02;24.00;62.50
72905;DHT22;61048;52.162;4.516;2022-08-19T03:24:30;24.00;62.70
72905;DHT22;61048;52.162;4.516;2022-08-19T03:26:57;24.00;62.50
72905;DHT22;61048;52.162;4.516;2022-08-19T03:29:25;24.00;62.60
72905;DHT22;61048;52.162;4.516;2022-08-19T03:31:52;24.00;62.60
72905;DHT22;61048;52.162;4.516;2022-08-19T03:34:22;24.00;62.50
72905;DHT22;61048;52.162;4.516;2022-08-19T03:36:51;24.00;62.60
72905;DHT22;61048;52.162;4.516;2022-08-19T03:39:21;24.00;62.70
72905;DHT22;61048;52.162;4.516;2022-08-19T03:41:49;24.00;62.50
72905;DHT22;61048;52.162;4.516;2022-08-19T03:44:19;24.00;62.60
72905;DHT22;61048;52.162;4.516;2022-08-19T03:46:49;24.00;62.60
72905;DHT22;61048;52.162;4.516;2022-08-19T03:49:17;24.00;62.60
72905;DHT22;61048;52.162;4.516;2022-08-19T03:51:45;24.00;62.50
72905;DHT22;61048;52.162;4.516;2022-08-19T03:54:14;24.00;62.60
72905;DHT22;61048;52.162;4.516;2022-08-19T03:56:44;24.00;62.70
72905;DHT22;61048;52.162;4.516;2022-08-19T03:59:13;24.00;62.70
72905;DHT22;61048;52.162;4.516;2022-08-19T04:01:40;24.00;62.70
72905;DHT22;61048;52.162;4.516;2022-08-19T04:04:07;24.00;62.50
72905;DHT22;61048;52.162;4.516;2022-08-19T04:06:36;24.00;62.50
72905;DHT22;61048;52.162;4.516;2022-08-19T04:09:05;24.00;62.50
72905;DHT22;61048;52.162;4.516;2022-08-19T04:11:36;24.00;62.40
72905;DHT22;61048;52.162;4.516;2022-08-19T04:14:08;24.00;62.60
72905;DHT22;61048;52.162;4.516;2022-08-19T04:16:36;24.00;62.60
72905;DHT22;61048;52.162;4.516;2022-08-19T04:19:04;24.00;62.50
72905;DHT22;61048;52.162;4.516;2022-08-19T04:21:33;24.00;62.70
72905;DHT22;61048;52.162;4.516;2022-08-19T04:24:00;24.00;62.60
72905;DHT22;61048;52.162;4.516;2022-08-19T04:26:29;24.00;62.60
72905;DHT22;61048;52.162;4.516;2022-08-19T04:28:58;24.00;62.60
72905;DHT22;61048;52.162;4.516;2022-08-19T04:31:29;24.00;62.70
72905;DHT22;61048;52.162;4.516;2022-08-19T04:33:59;24.00;62.60
72905;DHT22;61048;52.162;4.516;2022-08-19T04:36:29;24.00;62.70
72905;DHT22;61048;52.162;4.516;2022-08-19T04:38:59;24.00;62.60
72905;DHT22;61048;52.162;4.516;2022-08-19T04:41:26;24.00;62.60
72905;DHT22;61048;52.162;4.516;2022-08-19T04:44:11;24.00;62.70
72905;DHT22;61048;52.162;4.516;2022-08-19T04:46:40;24.00;62.70
72905;DHT22;61048;52.162;4.516;2022-08-19T04:49:07;24.00;62.60
72905;DHT22;61048;52.162;4.516;2022-08-19T04:51:35;24.00;62.70
72905;DHT22;61048;52.162;4.516;2022-08-19T04:54:03;24.00;62.70
72905;DHT22;61048;52.162;4.516;2022-08-19T04:56:30;24.00;62.70
72905;DHT22;61048;52.162;4.516;2022-08-19T04:58:56;24.00;62.70
72905;DHT22;61048;52.162;4.516;2022-08-19T05:01:26;24.00;62.80
72905;DHT22;61048;52.162;4.516;2022-08-19T05:03:55;24.00;62.90
72905;DHT22;61048;52.162;4.516;2022-08-19T05:06:23;24.00;62.80
72905;DHT22;61048;52.162;4.516;2022-08-19T05:08:51;24.00;62.80
72905;DHT22;61048;52.162;4.516;2022-08-19T05:11:24;24.00;62.80
72905;DHT22;61048;52.162;4.516;2022-08-19T05:13:51;24.00;62.90
72905;DHT22;61048;52.162;4.516;2022-08-19T05:16:20;24.00;62.90
72905;DHT22;61048;52.162;4.516;2022-08-19T05:18:48;24.00;63.00
72905;DHT22;61048;52.162;4.516;2022-08-19T05:21:34;24.00;62.90
72905;DHT22;61048;52.162;4.516;2022-08-19T05:24:20;24.00;64.00
72905;DHT22;61048;52.162;4.516;2022-08-19T05:26:49;24.00;65.10
72905;DHT22;61048;52.162;4.516;2022-08-19T05:29:18;24.10;65.70
72905;DHT22;61048;52.162;4.516;2022-08-19T05:31:46;24.10;65.40
72905;DHT22;61048;52.162;4.516;2022-08-19T05:34:15;24.10;65.50
72905;DHT22;61048;52.162;4.516;2022-08-19T05:36:44;24.10;65.70
72905;DHT22;61048;52.162;4.516;2022-08-19T05:39:14;24.20;65.70
72905;DHT22;61048;52.162;4.516;2022-08-19T05:41:42;24.20;66.10
72905;DHT22;61048;52.162;4.516;2022-08-19T05:44:09;24.20;66.00
72905;DHT22;61048;52.162;4.516;2022-08-19T05:46:36;24.20;65.90
72905;DHT22;61048;52.162;4.516;2022-08-19T05:49:03;24.20;65.80
72905;DHT22;61048;52.162;4.516;2022-08-19T05:51:32;24.30;64.90
72905;DHT22;61048;52.162;4.516;2022-08-19T05:54:01;24.30;64.80
72905;DHT22;61048;52.162;4.516;2022-08-19T05:56:28;24.30;65.10
72905;DHT22;61048;52.162;4.516;2022-08-19T05:58:56;24.40;64.60
72905;DHT22;61048;52.162;4.516;2022-08-19T06:01:25;24.40;65.00
72905;DHT22;61048;52.162;4.516;2022-08-19T06:03:52;24.40;64.70
72905;DHT22;61048;52.162;4.516;2022-08-19T06:06:21;24.40;64.70
72905;DHT22;61048;52.162;4.516;2022-08-19T06:08:48;24.50;64.60
72905;DHT22;61048;52.162;4.516;2022-08-19T06:11:20;24.50;64.50
72905;DHT22;61048;52.162;4.516;2022-08-19T06:13:49;24.50;64.60
72905;DHT22;61048;52.162;4.516;2022-08-19T06:16:18;24.50;64.40
72905;DHT22;61048;52.162;4.516;2022-08-19T06:18:49;24.50;64.20
72905;DHT22;61048;52.162;4.516;2022-08-19T06:21:18;24.60;64.10
72905;DHT22;61048;52.162;4.516;2022-08-19T06:23:46;24.60;63.90
72905;DHT22;61048;52.162;4.516;2022-08-19T06:26:14;24.60;63.70
72905;DHT22;61048;52.162;4.516;2022-08-19T06:28:42;24.70;63.70
72905;DHT22;61048;52.162;4.516;2022-08-19T06:31:12;24.70;63.90
72905;DHT22;61048;52.162;4.516;2022-08-19T06:33:41;24.70;63.40
72905;DHT22;61048;52.162;4.516;2022-08-19T06:36:16;24.70;63.30
72905;DHT22;61048;52.162;4.516;2022-08-19T06:38:43;24.80;63.00
72905;DHT22;61048;52.162;4.516;2022-08-19T06:41:10;24.90;62.90
72905;DHT22;61048;52.162;4.516;2022-08-19T06:43:37;24.90;62.90
72905;DHT22;61048;52.162;4.516;2022-08-19T06:46:10;24.90;64.30
72905;DHT22;61048;52.162;4.516;2022-08-19T06:48:37;24.90;64.20
72905;DHT22;61048;52.162;4.516;2022-08-19T06:51:04;24.90;64.90
72905;DHT22;61048;52.162;4.516;2022-08-19T06:53:32;24.90;64.80
72905;DHT22;61048;52.162;4.516;2022-08-19T06:55:59;24.90;64.90
72905;DHT22;61048;52.162;4.516;2022-08-19T06:58:28;24.80;64.80
72905;DHT22;61048;52.162;4.516;2022-08-19T07:00:58;24.80;64.70
72905;DHT22;61048;52.162;4.516;2022-08-19T07:03:29;24.80;64.60
72905;DHT22;61048;52.162;4.516;2022-08-19T07:05:56;24.80;64.50
72905;DHT22;61048;52.162;4.516;2022-08-19T07:08:24;24.80;64.60
72905;DHT22;61048;52.162;4.516;2022-08-19T07:10:52;24.70;64.40
72905;DHT22;61048;52.162;4.516;2022-08-19T07:13:20;24.70;64.50
72905;DHT22;61048;52.162;4.516;2022-08-19T07:15:48;24.70;64.50
72905;DHT22;61048;52.162;4.516;2022-08-19T07:18:16;24.60;64.70
72905;DHT22;61048;52.162;4.516;2022-08-19T07:20:44;24.60;64.80
72905;DHT22;61048;52.162;4.516;2022-08-19T07:23:11;24.60;64.80
72905;DHT22;61048;52.162;4.516;2022-08-19T07:25:39;24.50;64.80
72905;DHT22;61048;52.162;4.516;2022-08-19T07:28:05;24.50;64.90
72905;DHT22;61048;52.162;4.516;2022-08-19T07:30:37;24.50;65.10
72905;DHT22;61048;52.162;4.516;2022-08-19T07:33:06;24.40;65.00
72905;DHT22;61048;52.162;4.516;2022-08-19T07:35:33;24.40;63.50
72905;DHT22;61048;52.162;4.516;2022-08-19T07:38:01;24.40;63.30
72905;DHT22;61048;52.162;4.516;2022-08-19T07:40:29;24.40;63.40
72905;DHT22;61048;52.162;4.516;2022-08-19T07:42:56;24.40;63.50
72905;DHT22;61048;52.162;4.516;2022-08-19T07:45:23;24.40;63.50
72905;DHT22;61048;52.162;4.516;2022-08-19T07:47:50;24.40;63.50
72905;DHT22;61048;52.162;4.516;2022-08-19T07:50:19;24.40;63.50
72905;DHT22;61048;52.162;4.516;2022-08-19T07:52:47;24.40;63.80
72905;DHT22;61048;52.162;4.516;2022-08-19T07:55:19;24.40;63.70
72905;DHT22;61048;52.162;4.516;2022-08-19T07:57:46;24.30;64.00
72905;DHT22;61048;52.162;4.516;2022-08-19T08:00:14;24.30;64.00
72905;DHT22;61048;52.162;4.516;2022-08-19T08:02:41;24.20;64.30
72905;DHT22;61048;52.162;4.516;2022-08-19T08:05:09;24.20;63.80
72905;DHT22;61048;52.162;4.516;2022-08-19T08:07:53;24.30;63.70
72905;DHT22;61048;52.162;4.516;2022-08-19T08:10:39;24.20;63.40
72905;DHT22;61048;52.162;4.516;2022-08-19T08:13:07;24.20;63.40
72905;DHT22;61048;52.162;4.516;2022-08-19T08:15:34;24.20;63.70
72905;DHT22;61048;52.162;4.516;2022-08-19T08:18:02;24.20;63.60
72905;DHT22;61048;52.162;4.516;2022-08-19T08:20:29;24.20;63.30
72905;DHT22;61048;52.162;4.516;2022-08-19T08:22:56;24.20;63.60
72905;DHT22;61048;52.162;4.516;2022-08-19T08:25:42;24.20;63.70
72905;DHT22;61048;52.162;4.516;2022-08-19T08:28:09;24.20;63.70
72905;DHT22;61048;52.162;4.516;2022-08-19T08:30:36;24.30;63.70
72905;DHT22;61048;52.162;4.516;2022-08-19T08:33:06;24.30;63.70
72905;DHT22;61048;52.162;4.516;2022-08-19T08:35:34;24.30;63.60
72905;DHT22;61048;52.162;4.516;2022-08-19T08:38:01;24.30;63.60
72905;DHT22;61048;52.162;4.516;2022-08-19T08:40:37;24.20;63.50
72905;DHT22;61048;52.162;4.516;2022-08-19T08:43:13;24.20;63.40
72905;DHT22;61048;52.162;4.516;2022-08-19T08:45:49;24.20;63.20
72905;DHT22;61048;52.162;4.516;2022-08-19T08:48:22;24.30;63.20
72905;DHT22;61048;52.162;4.516;2022-08-19T08:50:51;24.30;63.10
72905;DHT22;61048;52.162;4.516;2022-08-19T08:53:21;24.30;63.10
72905;DHT22;61048;52.162;4.516;2022-08-19T08:55:49;24.30;63.30
72905;DHT22;61048;52.162;4.516;2022-08-19T08:58:24;24.30;63.30
72905;DHT22;61048;52.162;4.516;2022-08-19T09:00:52;24.30;63.30
72905;DHT22;61048;52.162;4.516;2022-08-19T09:03:22;24.30;63.20
72905;DHT22;61048;52.162;4.516;2022-08-19T09:05:56;24.30;63.30
72905;DHT22;61048;52.162;4.516;2022-08-19T09:08:33;24.30;63.30
72905;DHT22;61048;52.162;4.516;2022-08-19T09:11:06;24.30;63.20
72905;DHT22;61048;52.162;4.516;2022-08-19T09:13:41;24.30;63.10
72905;DHT22;61048;52.162;4.516;2022-08-19T09:16:12;24.20;63.40
72905;DHT22;61048;52.162;4.516;2022-08-19T09:18:42;24.20;63.70
72905;DHT22;61048;52.162;4.516;2022-08-19T09:21:10;24.20;64.00
72905;DHT22;61048;52.162;4.516;2022-08-19T09:23:37;24.20;64.00
72905;DHT22;61048;52.162;4.516;2022-08-19T09:26:07;24.20;64.10
72905;DHT22;61048;52.162;4.516;2022-08-19T09:28:35;24.20;63.90
72905;DHT22;61048;52.162;4.516;2022-08-19T09:31:03;24.20;64.00
72905;DHT22;61048;52.162;4.516;2022-08-19T09:33:30;24.20;63.60
72905;DHT22;61048;52.162;4.516;2022-08-19T09:36:06;24.30;63.40
72905;DHT22;61048;52.162;4.516;2022-08-19T09:38:34;24.30;63.30
72905;DHT22;61048;52.162;4.516;2022-08-19T09:41:05;24.30;63.10
72905;DHT22;61048;52.162;4.516;2022-08-19T09:43:32;24.30;63.10
72905;DHT22;61048;52.162;4.516;2022-08-19T09:46:03;24.30;63.10
72905;DHT22;61048;52.162;4.516;2022-08-19T09:48:31;24.30;63.10
72905;DHT22;61048;52.162;4.516;2022-08-19T09:51:03;24.30;63.00
72905;DHT22;61048;52.162;4.516;2022-08-19T09:53:30;24.30;63.20
72905;DHT22;61048;52.162;4.516;2022-08-19T09:55:57;24.30;63.40
72905;DHT22;61048;52.162;4.516;2022-08-19T09:58:24;24.20;63.40
72905;DHT22;61048;52.162;4.516;2022-08-19T10:00:53;24.30;63.40
72905;DHT22;61048;52.162;4.516;2022-08-19T10:03:21;24.30;63.30
72905;DHT22;61048;52.162;4.516;2022-08-19T10:05:49;24.30;63.50
72905;DHT22;61048;52.162;4.516;2022-08-19T10:08:17;24.30;63.50
72905;DHT22;61048;52.162;4.516;2022-08-19T10:10:45;24.30;63.40
72905;DHT22;61048;52.162;4.516;2022-08-19T10:13:13;24.30;63.30
72905;DHT22;61048;52.162;4.516;2022-08-19T10:15:40;24.30;63.30
72905;DHT22;61048;52.162;4.516;2022-08-19T10:18:07;24.30;63.30
72905;DHT22;61048;52.162;4.516;2022-08-19T10:20:35;24.30;63.40
72905;DHT22;61048;52.162;4.516;2022-08-19T10:23:02;24.30;63.20
72905;DHT22;61048;52.162;4.516;2022-08-19T10:25:29;24.40;63.00
72905;DHT22;61048;52.162;4.516;2022-08-19T10:27:59;24.40;62.80
72905;DHT22;61048;52.162;4.516;2022-08-19T10:30:26;24.40;62.60
72905;DHT22;61048;52.162;4.516;2022-08-19T10:32:53;24.40;62.40
72905;DHT22;61048;52.162;4.516;2022-08-19T10:35:20;24.40;62.40
72905;DHT22;61048;52.162;4.516;2022-08-19T10:37:48;24.40;62.40
72905;DHT22;61048;52.162;4.516;2022-08-19T10:40:15;24.40;62.50
72905;DHT22;61048;52.162;4.516;2022-08-19T10:42:42;24.40;62.40
72905;DHT22;61048;52.162;4.516;2022-08-19T10:45:09;24.30;62.50
72905;DHT22;61048;52.162;4.516;2022-08-19T10:47:37;24.30;62.70
72905;DHT22;61048;52.162;4.516;2022-08-19T10:50:04;24.40;62.70
72905;DHT22;61048;52.162;4.516;2022-08-19T10:52:50;24.30;62.60
72905;DHT22;61048;52.162;4.516;2022-08-19T10:55:19;24.30;62.70
72905;DHT22;61048;52.162;4.516;2022-08-19T10:58:04;24.30;62.80
72905;DHT22;61048;52.162;4.516;2022-08-19T11:00:31;24.30;62.90
72905;DHT22;61048;52.162;4.516;2022-08-19T11:02:58;24.30;63.10
72905;DHT22;61048;52.162;4.516;2022-08-19T11:05:25;24.30;63.30
72905;DHT22;61048;52.162;4.516;2022-08-19T11:07:53;24.30;63.50
72905;DHT22;61048;52.162;4.516;2022-08-19T11:10:20;24.30;63.60
72905;DHT22;61048;52.162;4.516;2022-08-19T11:12:47;24.30;63.60
72905;DHT22;61048;52.162;4.516;2022-08-19T11:15:14;24.30;63.50
72905;DHT22;61048;52.162;4.516;2022-08-19T11:17:43;24.40;63.40
72905;DHT22;61048;52.162;4.516;2022-08-19T11:20:11;24.40;63.30
72905;DHT22;61048;52.162;4.516;2022-08-19T11:22:39;24.40;63.20
72905;DHT22;61048;52.162;4.516;2022-08-19T11:25:09;24.40;63.20
72905;DHT22;61048;52.162;4.516;2022-08-19T11:27:38;24.40;63.20
72905;DHT22;61048;52.162;4.516;2022-08-19T11:30:08;24.40;63.20
72905;DHT22;61048;52.162;4.516;2022-08-19T11:32:35;24.40;63.20
72905;DHT22;61048;52.162;4.516;2022-08-19T11:35:03;24.40;63.30
72905;DHT22;61048;52.162;4.516;2022-08-19T11:37:30;24.40;63.20
72905;DHT22;61048;52.162;4.516;2022-08-19T11:39:58;24.40;63.30
72905;DHT22;61048;52.162;4.516;2022-08-19T11:42:27;24.40;63.30
72905;DHT22;61048;52.162;4.516;2022-08-19T11:45:11;24.40;63.20
72905;DHT22;61048;52.162;4.516;2022-08-19T11:47:39;24.50;63.10
72905;DHT22;61048;52.162;4.516;2022-08-19T11:50:06;24.50;63.10
72905;DHT22;61048;52.162;4.516;2022-08-19T11:52:33;24.50;63.10
72905;DHT22;61048;52.162;4.516;2022-08-19T11:55:00;24.50;63.10
72905;DHT22;61048;52.162;4.516;2022-08-19T11:57:28;24.50;63.20
72905;DHT22;61048;52.162;4.516;2022-08-19T11:59:55;24.40;63.10
72905;DHT22;61048;52.162;4.516;2022-08-19T12:02:22;24.50;63.00
72905;DHT22;61048;52.162;4.516;2022-08-19T12:04:49;24.50;63.00
72905;DHT22;61048;52.162;4.516;2022-08-19T12:07:16;24.50;63.10
72905;DHT22;61048;52.162;4.516;2022-08-19T12:09:43;24.50;63.10
72905;DHT22;61048;52.162;4.516;2022-08-19T12:12:10;24.50;63.10
72905;DHT22;61048;52.162;4.516;2022-08-19T12:14:39;24.50;63.00
72905;DHT22;61048;52.162;4.516;2022-08-19T12:17:05;24.50;63.00
72905;DHT22;61048;52.162;4.516;2022-08-19T12:19:35;24.50;63.00
72905;DHT22;61048;52.162;4.516;2022-08-19T12:22:02;24.50;63.00
72905;DHT22;61048;52.162;4.516;2022-08-19T12:24:31;24.50;63.20
72905;DHT22;61048;52.162;4.516;2022-08-19T12:26:58;24.50;63.20
72905;DHT22;61048;52.162;4.516;2022-08-19T12:29:27;24.50;63.20
72905;DHT22;61048;52.162;4.516;2022-08-19T12:31:57;24.60;63.20
72905;DHT22;61048;52.162;4.516;2022-08-19T12:34:28;24.60;63.10
72905;DHT22;61048;52.162;4.516;2022-08-19T12:36:56;24.60;62.80
72905;DHT22;61048;52.162;4.516;2022-08-19T12:39:23;24.60;62.60
72905;DHT22;61048;52.162;4.516;2022-08-19T12:41:50;24.60;62.70
72905;DHT22;61048;52.162;4.516;2022-08-19T12:44:17;24.60;62.70
72905;DHT22;61048;52.162;4.516;2022-08-19T12:46:44;24.60;62.60
72905;DHT22;61048;52.162;4.516;2022-08-19T12:49:13;24.70;62.60
72905;DHT22;61048;52.162;4.516;2022-08-19T12:51:41;24.70;62.50
72905;DHT22;61048;52.162;4.516;2022-08-19T12:54:08;24.80;62.30
72905;DHT22;61048;52.162;4.516;2022-08-19T12:56:36;24.80;62.40
72905;DHT22;61048;52.162;4.516;2022-08-19T12:59:03;24.80;62.30
72905;DHT22;61048;52.162;4.516;2022-08-19T13:01:31;24.70;62.20
72905;DHT22;61048;52.162;4.516;2022-08-19T13:03:58;24.70;62.20
72905;DHT22;61048;52.162;4.516;2022-08-19T13:06:26;24.70;62.20
72905;DHT22;61048;52.162;4.516;2022-08-19T13:08:54;24.70;62.10
72905;DHT22;61048;52.162;4.516;2022-08-19T13:11:21;24.70;62.10
72905;DHT22;61048;52.162;4.516;2022-08-19T13:13:51;24.80;62.20
72905;DHT22;61048;52.162;4.516;2022-08-19T13:16:20;24.80;62.10
72905;DHT22;61048;52.162;4.516;2022-08-19T13:18:47;24.80;62.10
72905;DHT22;61048;52.162;4.516;2022-08-19T13:21:14;24.80;62.00
72905;DHT22;61048;52.162;4.516;2022-08-19T13:23:43;24.90;61.90
72905;DHT22;61048;52.162;4.516;2022-08-19T13:26:13;24.90;62.00
72905;DHT22;61048;52.162;4.516;2022-08-19T13:28:41;24.90;61.90
72905;DHT22;61048;52.162;4.516;2022-08-19T13:31:28;24.90;61.80
72905;DHT22;61048;52.162;4.516;2022-08-19T13:34:14;25.00;61.80
72905;DHT22;61048;52.162;4.516;2022-08-19T13:36:41;25.00;61.90
72905;DHT22;61048;52.162;4.516;2022-08-19T13:39:09;25.00;61.90
72905;DHT22;61048;52.162;4.516;2022-08-19T13:41:37;25.00;62.00
72905;DHT22;61048;52.162;4.516;2022-08-19T13:44:04;25.00;61.90
72905;DHT22;61048;52.162;4.516;2022-08-19T13:46:31;25.00;62.00
72905;DHT22;61048;52.162;4.516;2022-08-19T13:48:58;25.10;61.90
72905;DHT22;61048;52.162;4.516;2022-08-19T13:51:25;25.10;61.70
72905;DHT22;61048;52.162;4.516;2022-08-19T13:53:52;25.10;61.70
72905;DHT22;61048;52.162;4.516;2022-08-19T13:56:22;25.10;61.40
72905;DHT22;61048;52.162;4.516;2022-08-19T13:58:49;25.10;61.20
72905;DHT22;61048;52.162;4.516;2022-08-19T14:01:20;25.10;61.20
72905;DHT22;61048;52.162;4.516;2022-08-19T14:03:47;25.00;61.40
72905;DHT22;61048;52.162;4.516;2022-08-19T14:06:14;25.10;61.10
72905;DHT22;61048;52.162;4.516;2022-08-19T14:08:42;25.00;61.10
72905;DHT22;61048;52.162;4.516;2022-08-19T14:11:09;25.00;61.10
72905;DHT22;61048;52.162;4.516;2022-08-19T14:13:37;25.00;61.00
72905;DHT22;61048;52.162;4.516;2022-08-19T14:16:07;25.10;61.10
72905;DHT22;61048;52.162;4.516;2022-08-19T14:18:34;25.10;61.20
72905;DHT22;61048;52.162;4.516;2022-08-19T14:21:01;25.10;61.20
72905;DHT22;61048;52.162;4.516;2022-08-19T14:23:28;25.10;61.00
72905;DHT22;61048;52.162;4.516;2022-08-19T14:26:03;25.10;60.80
72905;DHT22;61048;52.162;4.516;2022-08-19T14:28:30;25.00;60.90
72905;DHT22;61048;52.162;4.516;2022-08-19T14:30:58;25.00;60.90
72905;DHT22;61048;52.162;4.516;2022-08-19T14:33:25;25.00;60.90
72905;DHT22;61048;52.162;4.516;2022-08-19T14:35:52;25.00;61.10
72905;DHT22;61048;52.162;4.516;2022-08-19T14:38:20;25.00;61.30
72905;DHT22;61048;52.162;4.516;2022-08-19T14:40:47;25.00;61.50
72905;DHT22;61048;52.162;4.516;2022-08-19T14:43:15;25.00;61.60
72905;DHT22;61048;52.162;4.516;2022-08-19T14:45:43;25.00;61.90
72905;DHT22;61048;52.162;4.516;2022-08-19T14:48:11;25.00;61.90
72905;DHT22;61048;52.162;4.516;2022-08-19T14:50:38;25.00;61.80
72905;DHT22;61048;52.162;4.516;2022-08-19T14:53:07;25.00;61.90
72905;DHT22;61048;52.162;4.516;2022-08-19T14:55:34;25.00;61.90
72905;DHT22;61048;52.162;4.516;2022-08-19T14:58:01;25.00;61.90
72905;DHT22;61048;52.162;4.516;2022-08-19T15:00:28;25.00;61.80
72905;DHT22;61048;52.162;4.516;2022-08-19T15:02:55;25.00;61.70
72905;DHT22;61048;52.162;4.516;2022-08-19T15:05:23;25.00;62.00
72905;DHT22;61048;52.162;4.516;2022-08-19T15:07:50;25.00;62.00
72905;DHT22;61048;52.162;4.516;2022-08-19T15:10:17;25.00;62.00
72905;DHT22;61048;52.162;4.516;2022-08-19T15:12:44;25.00;61.90
72905;DHT22;61048;52.162;4.516;2022-08-19T15:15:12;25.00;61.90
72905;DHT22;61048;52.162;4.516;2022-08-19T15:17:40;25.00;62.00
72905;DHT22;61048;52.162;4.516;2022-08-19T15:20:08;24.90;62.10
72905;DHT22;61048;52.162;4.516;2022-08-19T15:22:37;24.90;62.10
72905;DHT22;61048;52.162;4.516;2022-08-19T15:25:05;24.90;62.30
72905;DHT22;61048;52.162;4.516;2022-08-19T15:27:32;24.80;62.50
72905;DHT22;61048;52.162;4.516;2022-08-19T15:30:00;24.80;62.70
72905;DHT22;61048;52.162;4.516;2022-08-19T15:32:27;24.80;62.90
72905;DHT22;61048;52.162;4.516;2022-08-19T15:34:54;24.80;63.20
72905;DHT22;61048;52.162;4.516;2022-08-19T15:37:21;24.70;63.70
72905;DHT22;61048;52.162;4.516;2022-08-19T15:39:51;24.70;64.10